sensor_id;sensor_type;location;lat;lon;timestamp;temperature;humidity
16479;DHT22;8350;52.316;10.530;2024-03-23T00:52:36;7.90;99.90
16479;DHT22;8350;52.316;10.530;2024-03-23T00:55:04;7.90;99.90
16479;DHT22;8350;52.316;10.530;2024-03-23T00:57:30;8.00;99.90
16479;DHT22;8350;52.316;10.530;2024-03-23T00:59:58;7.90;99.90
16479;DHT22;8350;52.316;10.530;2024-03-23T01:02:24;7.80;99.90
16479;DHT22;8350;52.316;10.530;2024-03-23T01:04:53;7.90;99.90
16479;DHT22;8350;52.316;10.530;2024-03-23T01:07:25;7.80;99.90
16479;DHT22;8350;52.316;10.530;2024-03-23T01:09:55;7.70;99.90
16479;DHT22;8350;52.316;10.530;2024-03-23T01:12:22;7.60;99.90
16479;DHT22;8350;52.316;10.530;2024-03-23T01:14:49;7.60;99.90
16479;DHT22;8350;52.316;10.530;2024-03-23T01:17:21;7.50;99.90
16479;DHT22;8350;52.316;10.530;2024-03-23T01:19:55;7.50;99.90
16479;DHT22;8350;52.316;10.530;2024-03-23T01:22:23;7.50;99.90
16479;DHT22;8350;52.316;10.530;2024-03-23T01:24:51;7.50;99.90
16479;DHT22;8350;52.316;10.530;2024-03-23T01:27:17;7.40;99.90
16479;DHT22;8350;52.316;10.530;2024-03-23T01:29:49;7.40;99.90
16479;DHT22;8350;52.316;10.530;2024-03-23T01:32:39;7.30;99.90
16479;DHT22;8350;52.316;10.530;2024-03-23T01:35:06;7.30;99.90
16479;DHT22;8350;52.316;10.530;2024-03-23T01:37:32;7.30;99.90
16479;DHT22;8350;52.316;10.530;2024-03-23T01:40:00;7.40;99.90
16479;DHT22;8350;52.316;10.530;2024-03-23T01:42:26;7.40;99.90
16479;DHT22;8350;52.316;10.530;2024-03-23T01:44:52;7.50;99.90
16479;DHT22;8350;52.316;10.530;2024-03-23T01:47:19;7.50;99.90
16479;DHT22;8350;52.316;10.530;2024-03-23T01:49:47;7.50;99.90
16479;DHT22;8350;52.316;10.530;2024-03-23T01:52:30;7.60;99.90
16479;DHT22;8350;52.316;10.530;2024-03-23T01:54:57;7.60;99.90
16479;DHT22;8350;52.316;10.530;2024-03-23T01:57:26;7.60;99.90
16479;DHT22;8350;52.316;10.530;2024-03-23T01:59:52;7.50;99.90
16479;DHT22;8350;52.316;10.530;2024-03-23T02:02:21;7.40;99.90
16479;DHT22;8350;52.316;10.530;2024-03-23T02:04:49;7.50;99.90
16479;DHT22;8350;52.316;10.530;2024-03-23T02:07:15;7.50;99.90
16479;DHT22;8350;52.316;10.530;2024-03-23T02:09:43;7.50;99.90
16479;DHT22;8350;52.316;10.530;2024-03-23T02:12:09;7.50;99.90
16479;DHT22;8350;52.316;10.530;2024-03-23T02:14:37;7.60;99.90
16479;DHT22;8350;52.316;10.530;2024-03-23T02:17:03;7.60;99.90
16479;DHT22;8350;52.316;10.530;2024-03-23T02:19:33;7.50;99.90
16479;DHT22;8350;52.316;10.530;2024-03-23T02:22:03;7.50;99.90
16479;DHT22;8350;52.316;10.530;2024-03-23T02:24:31;7.50;99.90
16479;DHT22;8350;52.316;10.530;2024-03-23T02:26:56;7.50;99.90
16479;DHT22;8350;52.316;10.530;2024-03-23T02:29:25;7.50;99.90
16479;DHT22;8350;52.316;10.530;2024-03-23T02:32:01;7.50;99.90
16479;DHT22;8350;52.316;10.530;2024-03-23T02:34:28;7.50;99.90
16479;DHT22;8350;52.316;10.530;2024-03-23T02:36:57;7.50;99.90
16479;DHT22;8350;52.316;10.530;2024-03-23T02:39:46;7.50;99.90
16479;DHT22;8350;52.316;10.530;2024-03-23T02:42:12;7.40;99.90
16479;DHT22;8350;52.316;10.530;2024-03-23T02:44:41;7.40;99.90
16479;DHT22;8350;52.316;10.530;2024-03-23T02:47:07;7.40;99.90
16479;DHT22;8350;52.316;10.530;2024-03-23T02:49:35;7.30;99.90
16479;DHT22;8350;52.316;10.530;2024-03-23T02:52:05;7.30;99.90
16479;DHT22;8350;52.316;10.530;2024-03-23T02:54:32;7.30;99.90
16479;DHT22;8350;52.316;10.530;2024-03-23T02:57:00;7.30;99.90
16479;DHT22;8350;52.316;10.530;2024-03-23T02:59:57;7.30;99.90
16479;DHT22;8350;52.316;10.530;2024-03-23T03:02:15;7.30;99.90
16479;DHT22;8350;52.316;10.530;2024-03-23T03:04:42;7.20;99.90
16479;DHT22;8350;52.316;10.530;2024-03-23T03:07:08;7.20;99.90
16479;DHT22;8350;52.316;10.530;2024-03-23T03:09:45;7.20;99.90
16479;DHT22;8350;52.316;10.530;2024-03-23T03:12:19;7.10;99.90
16479;DHT22;8350;52.316;10.530;2024-03-23T03:14:46;7.00;99.90
16479;DHT22;8350;52.316;10.530;2024-03-23T03:17:12;7.00;99.90
16479;DHT22;8350;52.316;10.530;2024-03-23T03:19:40;7.00;99.90
16479;DHT22;8350;52.316;10.530;2024-03-23T03:22:07;7.00;99.90
16479;DHT22;8350;52.316;10.530;2024-03-23T03:24:48;7.00;99.90
16479;DHT22;8350;52.316;10.530;2024-03-23T03:27:15;6.90;99.90
16479;DHT22;8350;52.316;10.530;2024-03-23T03:29:44;6.80;99.90
16479;DHT22;8350;52.316;10.530;2024-03-23T03:32:10;6.80;99.90
16479;DHT22;8350;52.316;10.530;2024-03-23T03:34:38;6.70;99.90
16479;DHT22;8350;52.316;10.530;2024-03-23T03:37:06;6.70;99.90
16479;DHT22;8350;52.316;10.530;2024-03-23T03:39:34;6.70;99.90
16479;DHT22;8350;52.316;10.530;2024-03-23T03:42:00;6.80;99.90
16479;DHT22;8350;52.316;10.530;2024-03-23T03:44:37;6.70;99.90
16479;DHT22;8350;52.316;10.530;2024-03-23T03:47:05;6.80;99.90
16479;DHT22;8350;52.316;10.530;2024-03-23T03:49:32;6.70;99.90
16479;DHT22;8350;52.316;10.530;2024-03-23T03:52:00;6.70;99.90
16479;DHT22;8350;52.316;10.530;2024-03-23T03:54:27;6.70;99.90
16479;DHT22;8350;52.316;10.530;2024-03-23T03:56:53;6.70;99.90
16479;DHT22;8350;52.316;10.530;2024-03-23T03:59:20;6.70;99.90
16479;DHT22;8350;52.316;10.530;2024-03-23T04:01:47;6.70;99.90
16479;DHT22;8350;52.316;10.530;2024-03-23T04:04:16;6.70;99.90
16479;DHT22;8350;52.316;10.530;2024-03-23T04:06:44;6.60;99.90
16479;DHT22;8350;52.316;10.530;2024-03-23T04:09:13;6.60;99.90
16479;DHT22;8350;52.316;10.530;2024-03-23T04:11:42;6.60;99.90
16479;DHT22;8350;52.316;10.530;2024-03-23T04:14:08;6.60;99.90
16479;DHT22;8350;52.316;10.530;2024-03-23T04:16:36;6.70;99.90
16479;DHT22;8350;52.316;10.530;2024-03-23T04:19:06;6.60;99.90
16479;DHT22;8350;52.316;10.530;2024-03-23T04:21:35;6.60;99.90
16479;DHT22;8350;52.316;10.530;2024-03-23T04:24:07;6.60;99.90
16479;DHT22;8350;52.316;10.530;2024-03-23T04:26:40;6.60;99.90
16479;DHT22;8350;52.316;10.530;2024-03-23T04:29:09;6.60;99.90
16479;DHT22;8350;52.316;10.530;2024-03-23T04:31:35;6.60;99.90
16479;DHT22;8350;52.316;10.530;2024-03-23T04:34:06;6.60;99.90
16479;DHT22;8350;52.316;10.530;2024-03-23T04:36:34;6.60;99.90
16479;DHT22;8350;52.316;10.530;2024-03-23T04:39:02;6.50;99.90
16479;DHT22;8350;52.316;10.530;2024-03-23T04:41:34;6.50;99.90
16479;DHT22;8350;52.316;10.530;2024-03-23T04:44:11;6.40;99.90
16479;DHT22;8350;52.316;10.530;2024-03-23T04:46:45;6.40;99.90
16479;DHT22;8350;52.316;10.530;2024-03-23T04:49:16;6.40;99.90
16479;DHT22;8350;52.316;10.530;2024-03-23T04:51:43;6.30;99.90
16479;DHT22;8350;52.316;10.530;2024-03-23T04:54:11;6.40;99.90
16479;DHT22;8350;52.316;10.530;2024-03-23T04:56:38;6.30;99.90
16479;DHT22;8350;52.316;10.530;2024-03-23T04:59:05;6.30;99.90
16479;DHT22;8350;52.316;10.530;2024-03-23T05:01:31;6.30;99.90
16479;DHT22;8350;52.316;10.530;2024-03-23T05:03:58;6.30;99.90
16479;DHT22;8350;52.316;10.530;2024-03-23T05:06:28;6.20;99.90
16479;DHT22;8350;52.316;10.530;2024-03-23T05:08:56;6.30;99.90
16479;DHT22;8350;52.316;10.530;2024-03-23T05:11:25;6.40;99.90
16479;DHT22;8350;52.316;10.530;2024-03-23T05:13:51;6.40;99.90
16479;DHT22;8350;52.316;10.530;2024-03-23T05:16:17;6.40;99.90
16479;DHT22;8350;52.316;10.530;2024-03-23T05:18:44;6.40;99.90
16479;DHT22;8350;52.316;10.530;2024-03-23T05:21:15;6.30;99.90
16479;DHT22;8350;52.316;10.530;2024-03-23T05:23:42;6.30;99.90
16479;DHT22;8350;52.316;10.530;2024-03-23T05:26:09;6.40;99.90
16479;DHT22;8350;52.316;10.530;2024-03-23T05:28:35;6.40;99.90
16479;DHT22;8350;52.316;10.530;2024-03-23T05:31:04;6.40;99.90
16479;DHT22;8350;52.316;10.530;2024-03-23T05:33:32;6.40;99.90
16479;DHT22;8350;52.316;10.530;2024-03-23T05:36:00;6.30;99.90
16479;DHT22;8350;52.316;10.530;2024-03-23T05:38:27;6.10;99.90
16479;DHT22;8350;52.316;10.530;2024-03-23T05:40:56;6.00;99.90
16479;DHT22;8350;52.316;10.530;2024-03-23T05:43:22;5.90;99.90
16479;DHT22;8350;52.316;10.530;2024-03-23T05:46:07;5.80;99.90
16479;DHT22;8350;52.316;10.530;2024-03-23T05:48:38;5.80;99.90
16479;DHT22;8350;52.316;10.530;2024-03-23T05:51:07;5.70;99.90
16479;DHT22;8350;52.316;10.530;2024-03-23T05:53:37;5.70;99.90
16479;DHT22;8350;52.316;10.530;2024-03-23T05:56:05;5.70;99.90
16479;DHT22;8350;52.316;10.530;2024-03-23T05:58:32;5.70;99.90
16479;DHT22;8350;52.316;10.530;2024-03-23T06:01:01;5.70;99.90
16479;DHT22;8350;52.316;10.530;2024-03-23T06:03:30;5.80;99.90
16479;DHT22;8350;52.316;10.530;2024-03-23T06:06:04;5.90;99.90
16479;DHT22;8350;52.316;10.530;2024-03-23T06:08:43;5.90;99.90
16479;DHT22;8350;52.316;10.530;2024-03-23T06:11:21;5.80;99.90
16479;DHT22;8350;52.316;10.530;2024-03-23T06:13:51;5.70;99.90
16479;DHT22;8350;52.316;10.530;2024-03-23T06:16:32;5.70;99.90
16479;DHT22;8350;52.316;10.530;2024-03-23T06:18:58;5.60;99.90
16479;DHT22;8350;52.316;10.530;2024-03-23T06:21:25;5.50;99.90
16479;DHT22;8350;52.316;10.530;2024-03-23T06:23:54;5.50;99.90
16479;DHT22;8350;52.316;10.530;2024-03-23T06:26:33;5.50;99.90
16479;DHT22;8350;52.316;10.530;2024-03-23T06:29:01;5.50;99.90
16479;DHT22;8350;52.316;10.530;2024-03-23T06:31:28;5.40;99.90
16479;DHT22;8350;52.316;10.530;2024-03-23T06:33:55;5.50;99.90
16479;DHT22;8350;52.316;10.530;2024-03-23T06:36:22;5.50;99.90
16479;DHT22;8350;52.316;10.530;2024-03-23T06:38:47;5.50;99.90
16479;DHT22;8350;52.316;10.530;2024-03-23T06:41:17;5.40;99.90
16479;DHT22;8350;52.316;10.530;2024-03-23T06:43:46;5.40;99.90
16479;DHT22;8350;52.316;10.530;2024-03-23T06:46:16;5.40;99.90
16479;DHT22;8350;52.316;10.530;2024-03-23T06:48:41;5.40;99.90
16479;DHT22;8350;52.316;10.530;2024-03-23T06:51:10;5.40;99.90
16479;DHT22;8350;52.316;10.530;2024-03-23T06:53:36;5.40;99.90
16479;DHT22;8350;52.316;10.530;2024-03-23T06:56:04;5.50;99.90
16479;DHT22;8350;52.316;10.530;2024-03-23T06:58:33;5.50;99.90
16479;DHT22;8350;52.316;10.530;2024-03-23T07:01:07;5.40;99.90
16479;DHT22;8350;52.316;10.530;2024-03-23T07:03:35;5.40;99.90
16479;DHT22;8350;52.316;10.530;2024-03-23T07:06:05;5.50;99.90
16479;DHT22;8350;52.316;10.530;2024-03-23T07:08:33;5.60;99.90
16479;DHT22;8350;52.316;10.530;2024-03-23T07:11:00;5.70;99.90
16479;DHT22;8350;52.316;10.530;2024-03-23T07:13:28;5.80;99.90
16479;DHT22;8350;52.316;10.530;2024-03-23T07:15:56;5.90;99.90
16479;DHT22;8350;52.316;10.530;2024-03-23T07:18:24;6.00;99.90
16479;DHT22;8350;52.316;10.530;2024-03-23T07:20:54;6.10;99.90
16479;DHT22;8350;52.316;10.530;2024-03-23T07:23:22;6.10;99.90
16479;DHT22;8350;52.316;10.530;2024-03-23T07:26:18;6.20;99.90
16479;DHT22;8350;52.316;10.530;2024-03-23T07:28:51;6.20;99.90
16479;DHT22;8350;52.316;10.530;2024-03-23T07:31:21;6.30;99.90
16479;DHT22;8350;52.316;10.530;2024-03-23T07:33:49;6.40;99.90
16479;DHT22;8350;52.316;10.530;2024-03-23T07:36:15;6.50;99.90
16479;DHT22;8350;52.316;10.530;2024-03-23T07:38:44;6.50;99.90
16479;DHT22;8350;52.316;10.530;2024-03-23T07:41:11;6.60;99.90
16479;DHT22;8350;52.316;10.530;2024-03-23T07:43:38;6.80;99.90
16479;DHT22;8350;52.316;10.530;2024-03-23T07:46:06;6.90;99.90
16479;DHT22;8350;52.316;10.530;2024-03-23T07:48:38;7.10;99.90
16479;DHT22;8350;52.316;10.530;2024-03-23T07:51:07;7.10;99.90
16479;DHT22;8350;52.316;10.530;2024-03-23T07:53:58;7.20;99.90
16479;DHT22;8350;52.316;10.530;2024-03-23T07:56:24;7.10;99.90
16479;DHT22;8350;52.316;10.530;2024-03-23T07:58:52;7.00;99.90
16479;DHT22;8350;52.316;10.530;2024-03-23T08:01:18;7.00;99.90
16479;DHT22;8350;52.316;10.530;2024-03-23T08:03:49;7.20;99.90
16479;DHT22;8350;52.316;10.530;2024-03-23T08:06:20;7.20;99.90
16479;DHT22;8350;52.316;10.530;2024-03-23T08:08:52;7.20;99.90
16479;DHT22;8350;52.316;10.530;2024-03-23T08:11:39;7.10;99.90
16479;DHT22;8350;52.316;10.530;2024-03-23T08:14:18;6.90;99.90
16479;DHT22;8350;52.316;10.530;2024-03-23T08:16:45;6.80;99.90
16479;DHT22;8350;52.316;10.530;2024-03-23T08:19:14;6.70;99.90
16479;DHT22;8350;52.316;10.530;2024-03-23T08:22:02;6.70;99.90
16479;DHT22;8350;52.316;10.530;2024-03-23T08:24:32;6.70;99.90
16479;DHT22;8350;52.316;10.530;2024-03-23T08:26:59;6.60;99.90
16479;DHT22;8350;52.316;10.530;2024-03-23T08:29:35;6.60;99.90
16479;DHT22;8350;52.316;10.530;2024-03-23T08:32:03;6.50;99.90
16479;DHT22;8350;52.316;10.530;2024-03-23T08:34:31;6.60;99.90
16479;DHT22;8350;52.316;10.530;2024-03-23T08:37:00;6.60;99.90
16479;DHT22;8350;52.316;10.530;2024-03-23T08:39:39;6.70;99.90
16479;DHT22;8350;52.316;10.530;2024-03-23T08:42:13;7.00;99.90
16479;DHT22;8350;52.316;10.530;2024-03-23T08:44:44;7.10;99.90
16479;DHT22;8350;52.316;10.530;2024-03-23T08:47:15;7.30;99.90
16479;DHT22;8350;52.316;10.530;2024-03-23T08:49:42;7.40;99.90
16479;DHT22;8350;52.316;10.530;2024-03-23T08:52:12;7.40;99.90
16479;DHT22;8350;52.316;10.530;2024-03-23T08:54:41;7.50;99.90
16479;DHT22;8350;52.316;10.530;2024-03-23T08:57:18;7.60;99.90
16479;DHT22;8350;52.316;10.530;2024-03-23T09:00:06;7.70;99.90
16479;DHT22;8350;52.316;10.530;2024-03-23T09:02:44;7.70;99.90
16479;DHT22;8350;52.316;10.530;2024-03-23T09:05:14;7.70;99.90
16479;DHT22;8350;52.316;10.530;2024-03-23T09:07:41;7.70;99.90
16479;DHT22;8350;52.316;10.530;2024-03-23T09:10:08;7.70;99.90
16479;DHT22;8350;52.316;10.530;2024-03-23T09:12:38;7.70;99.90
16479;DHT22;8350;52.316;10.530;2024-03-23T09:15:07;7.70;99.90
16479;DHT22;8350;52.316;10.530;2024-03-23T09:17:35;7.70;99.90
16479;DHT22;8350;52.316;10.530;2024-03-23T09:20:05;7.70;99.90
16479;DHT22;8350;52.316;10.530;2024-03-23T09:22:32;7.70;99.90
16479;DHT22;8350;52.316;10.530;2024-03-23T09:25:11;7.40;99.90
16479;DHT22;8350;52.316;10.530;2024-03-23T09:27:53;7.10;99.90
16479;DHT22;8350;52.316;10.530;2024-03-23T09:30:20;6.80;99.90
16479;DHT22;8350;52.316;10.530;2024-03-23T09:32:47;6.70;99.90
16479;DHT22;8350;52.316;10.530;2024-03-23T09:35:30;6.80;99.90
16479;DHT22;8350;52.316;10.530;2024-03-23T09:37:57;6.80;99.90
16479;DHT22;8350;52.316;10.530;2024-03-23T09:40:27;6.90;99.90
16479;DHT22;8350;52.316;10.530;2024-03-23T09:42:56;7.00;99.90
16479;DHT22;8350;52.316;10.530;2024-03-23T09:45:27;7.10;99.90
16479;DHT22;8350;52.316;10.530;2024-03-23T09:47:55;7.20;99.90
16479;DHT22;8350;52.316;10.530;2024-03-23T09:50:30;7.30;99.90
16479;DHT22;8350;52.316;10.530;2024-03-23T09:53:14;7.30;99.90
16479;DHT22;8350;52.316;10.530;2024-03-23T09:55:44;7.40;99.90
16479;DHT22;8350;52.316;10.530;2024-03-23T09:58:18;7.60;99.90
16479;DHT22;8350;52.316;10.530;2024-03-23T10:00:46;7.70;99.90
16479;DHT22;8350;52.316;10.530;2024-03-23T10:03:15;7.90;99.90
16479;DHT22;8350;52.316;10.530;2024-03-23T10:05:44;8.00;99.90
16479;DHT22;8350;52.316;10.530;2024-03-23T10:08:19;8.00;99.90
16479;DHT22;8350;52.316;10.530;2024-03-23T10:10:51;8.20;99.90
16479;DHT22;8350;52.316;10.530;2024-03-23T10:13:25;8.30;99.90
16479;DHT22;8350;52.316;10.530;2024-03-23T10:15:56;8.40;99.90
16479;DHT22;8350;52.316;10.530;2024-03-23T10:18:24;8.50;99.90
16479;DHT22;8350;52.316;10.530;2024-03-23T10:21:08;8.70;99.90
16479;DHT22;8350;52.316;10.530;2024-03-23T10:23:37;8.90;99.90
16479;DHT22;8350;52.316;10.530;2024-03-23T10:26:21;8.20;99.90
16479;DHT22;8350;52.316;10.530;2024-03-23T10:28:54;8.00;99.90
16479;DHT22;8350;52.316;10.530;2024-03-23T10:31:44;7.70;99.90
16479;DHT22;8350;52.316;10.530;2024-03-23T10:34:15;7.60;99.90
16479;DHT22;8350;52.316;10.530;2024-03-23T10:36:45;7.70;99.90
16479;DHT22;8350;52.316;10.530;2024-03-23T10:39:12;7.80;99.90
16479;DHT22;8350;52.316;10.530;2024-03-23T10:41:45;8.20;99.90
16479;DHT22;8350;52.316;10.530;2024-03-23T10:44:13;8.60;99.90
16479;DHT22;8350;52.316;10.530;2024-03-23T10:46:39;8.90;99.90
16479;DHT22;8350;52.316;10.530;2024-03-23T10:49:06;9.30;99.90
16479;DHT22;8350;52.316;10.530;2024-03-23T10:51:32;9.30;99.90
16479;DHT22;8350;52.316;10.530;2024-03-23T10:54:00;8.70;99.90
16479;DHT22;8350;52.316;10.530;2024-03-23T10:56:31;8.30;99.90
16479;DHT22;8350;52.316;10.530;2024-03-23T10:59:05;7.80;99.90
16479;DHT22;8350;52.316;10.530;2024-03-23T11:01:35;7.60;99.90
16479;DHT22;8350;52.316;10.530;2024-03-23T11:04:01;7.50;99.90
16479;DHT22;8350;52.316;10.530;2024-03-23T11:06:37;7.60;99.90
16479;DHT22;8350;52.316;10.530;2024-03-23T11:09:04;7.80;99.90
16479;DHT22;8350;52.316;10.530;2024-03-23T11:11:50;8.20;99.90
16479;DHT22;8350;52.316;10.530;2024-03-23T11:14:23;8.70;99.90
16479;DHT22;8350;52.316;10.530;2024-03-23T11:17:10;9.10;99.90
16479;DHT22;8350;52.316;10.530;2024-03-23T11:19:42;9.40;99.90
16479;DHT22;8350;52.316;10.530;2024-03-23T11:22:14;9.70;99.90
16479;DHT22;8350;52.316;10.530;2024-03-23T11:25:01;10.00;99.90
16479;DHT22;8350;52.316;10.530;2024-03-23T11:27:30;10.10;99.90
16479;DHT22;8350;52.316;10.530;2024-03-23T11:30:20;10.20;99.90
16479;DHT22;8350;52.316;10.530;2024-03-23T11:32:51;10.00;99.90
16479;DHT22;8350;52.316;10.530;2024-03-23T11:35:27;9.80;99.90
16479;DHT22;8350;52.316;10.530;2024-03-23T11:38:11;9.60;99.90
16479;DHT22;8350;52.316;10.530;2024-03-23T11:40:49;9.60;99.90
16479;DHT22;8350;52.316;10.530;2024-03-23T11:43:19;9.80;99.90
16479;DHT22;8350;52.316;10.530;2024-03-23T11:45:50;10.00;99.90
16479;DHT22;8350;52.316;10.530;2024-03-23T11:48:20;10.10;99.90
16479;DHT22;8350;52.316;10.530;2024-03-23T11:50:55;9.80;99.90
16479;DHT22;8350;52.316;10.530;2024-03-23T11:53:24;8.70;99.90
16479;DHT22;8350;52.316;10.530;2024-03-23T11:55:52;8.30;99.90
16479;DHT22;8350;52.316;10.530;2024-03-23T11:58:24;7.90;99.90
16479;DHT22;8350;52.316;10.530;2024-03-23T12:00:55;7.50;99.90
16479;DHT22;8350;52.316;10.530;2024-03-23T12:03:32;7.30;99.90
16479;DHT22;8350;52.316;10.530;2024-03-23T12:06:01;7.10;99.90
16479;DHT22;8350;52.316;10.530;2024-03-23T12:08:31;7.00;99.90
16479;DHT22;8350;52.316;10.530;2024-03-23T12:11:10;7.10;99.90
16479;DHT22;8350;52.316;10.530;2024-03-23T12:13:41;7.40;99.90
16479;DHT22;8350;52.316;10.530;2024-03-23T12:16:16;7.70;99.90
16479;DHT22;8350;52.316;10.530;2024-03-23T12:18:44;7.70;99.90
16479;DHT22;8350;52.316;10.530;2024-03-23T12:21:16;7.80;99.90
16479;DHT22;8350;52.316;10.530;2024-03-23T12:23:50;8.10;99.90
16479;DHT22;8350;52.316;10.530;2024-03-23T12:26:17;8.20;99.90
16479;DHT22;8350;52.316;10.530;2024-03-23T12:28:45;8.10;99.90
16479;DHT22;8350;52.316;10.530;2024-03-23T12:31:13;8.00;99.90
16479;DHT22;8350;52.316;10.530;2024-03-23T12:33:40;7.90;99.90
16479;DHT22;8350;52.316;10.530;2024-03-23T12:36:09;7.80;99.90
16479;DHT22;8350;52.316;10.530;2024-03-23T12:38:35;7.80;99.90
16479;DHT22;8350;52.316;10.530;2024-03-23T12:41:02;7.90;99.90
16479;DHT22;8350;52.316;10.530;2024-03-23T12:44:00;8.00;99.90
16479;DHT22;8350;52.316;10.530;2024-03-23T12:46:22;8.40;99.90
16479;DHT22;8350;52.316;10.530;2024-03-23T12:48:49;8.80;99.90
16479;DHT22;8350;52.316;10.530;2024-03-23T12:51:15;9.00;99.90
16479;DHT22;8350;52.316;10.530;2024-03-23T12:53:42;8.70;99.90
16479;DHT22;8350;52.316;10.530;2024-03-23T12:56:13;8.40;99.90
16479;DHT22;8350;52.316;10.530;2024-03-23T12:58:41;7.90;99.90
16479;DHT22;8350;52.316;10.530;2024-03-23T13:01:10;7.70;99.90
16479;DHT22;8350;52.316;10.530;2024-03-23T13:03:41;7.40;99.90
16479;DHT22;8350;52.316;10.530;2024-03-23T13:06:11;7.50;99.90
16479;DHT22;8350;52.316;10.530;2024-03-23T13:08:37;7.50;99.90
16479;DHT22;8350;52.316;10.530;2024-03-23T13:11:03;7.60;99.90
16479;DHT22;8350;52.316;10.530;2024-03-23T13:13:30;7.60;99.90
16479;DHT22;8350;52.316;10.530;2024-03-23T13:16:01;7.50;99.90
16479;DHT22;8350;52.316;10.530;2024-03-23T13:18:32;7.40;99.90
16479;DHT22;8350;52.316;10.530;2024-03-23T13:21:04;7.30;99.90
16479;DHT22;8350;52.316;10.530;2024-03-23T13:23:32;7.20;99.90
16479;DHT22;8350;52.316;10.530;2024-03-23T13:26:00;7.10;99.90
16479;DHT22;8350;52.316;10.530;2024-03-23T13:28:33;7.10;99.90
16479;DHT22;8350;52.316;10.530;2024-03-23T13:31:04;7.10;99.90
16479;DHT22;8350;52.316;10.530;2024-03-23T13:33:31;7.30;99.90
16479;DHT22;8350;52.316;10.530;2024-03-23T13:36:00;7.40;99.90
16479;DHT22;8350;52.316;10.530;2024-03-23T13:38:30;7.60;99.90
16479;DHT22;8350;52.316;10.530;2024-03-23T13:40:59;7.60;99.90
16479;DHT22;8350;52.316;10.530;2024-03-23T13:43:30;7.60;99.90
16479;DHT22;8350;52.316;10.530;2024-03-23T13:46:00;7.50;99.90
16479;DHT22;8350;52.316;10.530;2024-03-23T13:48:27;7.50;99.90
16479;DHT22;8350;52.316;10.530;2024-03-23T13:51:05;7.50;99.90
16479;DHT22;8350;52.316;10.530;2024-03-23T13:53:33;7.50;99.90
16479;DHT22;8350;52.316;10.530;2024-03-23T13:56:01;7.50;99.90
16479;DHT22;8350;52.316;10.530;2024-03-23T13:58:29;7.50;99.90
16479;DHT22;8350;52.316;10.530;2024-03-23T14:00:57;7.50;99.90
16479;DHT22;8350;52.316;10.530;2024-03-23T14:03:24;7.60;99.90
16479;DHT22;8350;52.316;10.530;2024-03-23T14:05:50;7.80;99.90
16479;DHT22;8350;52.316;10.530;2024-03-23T14:08:18;7.90;99.90
16479;DHT22;8350;52.316;10.530;2024-03-23T14:10:45;8.20;99.90
16479;DHT22;8350;52.316;10.530;2024-03-23T14:13:13;8.30;99.90
16479;DHT22;8350;52.316;10.530;2024-03-23T14:15:54;8.50;99.90
16479;DHT22;8350;52.316;10.530;2024-03-23T14:18:21;8.60;99.90
16479;DHT22;8350;52.316;10.530;2024-03-23T14:20:48;8.70;99.90
16479;DHT22;8350;52.316;10.530;2024-03-23T14:23:15;8.70;99.90
16479;DHT22;8350;52.316;10.530;2024-03-23T14:25:45;8.70;99.90
16479;DHT22;8350;52.316;10.530;2024-03-23T14:28:12;8.60;99.90
16479;DHT22;8350;52.316;10.530;2024-03-23T14:30:42;8.70;99.90
16479;DHT22;8350;52.316;10.530;2024-03-23T14:33:09;8.80;99.90
16479;DHT22;8350;52.316;10.530;2024-03-23T14:35:34;8.90;99.90
16479;DHT22;8350;52.316;10.530;2024-03-23T14:38:01;9.10;99.90
16479;DHT22;8350;52.316;10.530;2024-03-23T14:40:27;8.90;99.90
16479;DHT22;8350;52.316;10.530;2024-03-23T14:42:59;8.90;99.90
16479;DHT22;8350;52.316;10.530;2024-03-23T14:45:25;8.70;99.90
16479;DHT22;8350;52.316;10.530;2024-03-23T14:47:52;8.70;99.90
16479;DHT22;8350;52.316;10.530;2024-03-23T14:50:19;8.80;99.90
16479;DHT22;8350;52.316;10.530;2024-03-23T14:52:47;8.90;99.90
16479;DHT22;8350;52.316;10.530;2024-03-23T14:55:13;9.10;99.90
16479;DHT22;8350;52.316;10.530;2024-03-23T14:57:40;9.00;99.90
16479;DHT22;8350;52.316;10.530;2024-03-23T15:00:11;9.00;99.90
16479;DHT22;8350;52.316;10.530;2024-03-23T15:02:40;9.00;99.90
16479;DHT22;8350;52.316;10.530;2024-03-23T15:05:11;9.00;99.90
16479;DHT22;8350;52.316;10.530;2024-03-23T15:07:44;9.00;99.90
16479;DHT22;8350;52.316;10.530;2024-03-23T15:10:10;9.00;99.90
16479;DHT22;8350;52.316;10.530;2024-03-23T15:12:39;8.80;99.90
16479;DHT22;8350;52.316;10.530;2024-03-23T15:15:08;8.70;99.90
16479;DHT22;8350;52.316;10.530;2024-03-23T15:17:36;8.60;99.90
16479;DHT22;8350;52.316;10.530;2024-03-23T15:20:07;8.50;99.90
16479;DHT22;8350;52.316;10.530;2024-03-23T15:22:35;8.40;99.90
16479;DHT22;8350;52.316;10.530;2024-03-23T15:25:01;8.10;99.90
16479;DHT22;8350;52.316;10.530;2024-03-23T15:27:28;7.80;99.90
16479;DHT22;8350;52.316;10.530;2024-03-23T15:30:15;7.70;99.90
16479;DHT22;8350;52.316;10.530;2024-03-23T15:32:44;7.40;99.90
16479;DHT22;8350;52.316;10.530;2024-03-23T15:35:12;7.20;99.90
16479;DHT22;8350;52.316;10.530;2024-03-23T15:37:39;7.10;99.90
16479;DHT22;8350;52.316;10.530;2024-03-23T15:40:13;6.90;99.90
16479;DHT22;8350;52.316;10.530;2024-03-23T15:42:40;6.80;99.90
16479;DHT22;8350;52.316;10.530;2024-03-23T15:45:09;7.00;99.90
16479;DHT22;8350;52.316;10.530;2024-03-23T15:47:51;7.10;99.90
16479;DHT22;8350;52.316;10.530;2024-03-23T15:50:23;7.30;99.90
16479;DHT22;8350;52.316;10.530;2024-03-23T15:52:49;7.30;99.90
16479;DHT22;8350;52.316;10.530;2024-03-23T15:55:16;7.30;99.90
16479;DHT22;8350;52.316;10.530;2024-03-23T15:57:42;7.30;99.90
16479;DHT22;8350;52.316;10.530;2024-03-23T16:00:12;7.30;99.90
16479;DHT22;8350;52.316;10.530;2024-03-23T16:02:41;7.30;99.90
16479;DHT22;8350;52.316;10.530;2024-03-23T16:05:09;7.20;99.90
16479;DHT22;8350;52.316;10.530;2024-03-23T16:07:38;7.20;99.90
16479;DHT22;8350;52.316;10.530;2024-03-23T16:10:06;7.10;99.90
16479;DHT22;8350;52.316;10.530;2024-03-23T16:12:36;7.20;99.90
16479;DHT22;8350;52.316;10.530;2024-03-23T16:15:04;7.10;99.90
16479;DHT22;8350;52.316;10.530;2024-03-23T16:17:31;7.10;99.90
16479;DHT22;8350;52.316;10.530;2024-03-23T16:20:07;7.10;99.90
16479;DHT22;8350;52.316;10.530;2024-03-23T16:22:36;7.10;99.90
16479;DHT22;8350;52.316;10.530;2024-03-23T16:25:12;7.10;99.90
16479;DHT22;8350;52.316;10.530;2024-03-23T16:27:38;7.10;99.90
16479;DHT22;8350;52.316;10.530;2024-03-23T16:30:08;7.10;99.90
16479;DHT22;8350;52.316;10.530;2024-03-23T16:32:47;7.20;99.90
16479;DHT22;8350;52.316;10.530;2024-03-23T16:35:17;7.10;99.90
16479;DHT22;8350;52.316;10.530;2024-03-23T16:37:43;7.20;99.90
16479;DHT22;8350;52.316;10.530;2024-03-23T16:40:14;7.20;99.90
16479;DHT22;8350;52.316;10.530;2024-03-23T16:42:40;7.20;99.90
16479;DHT22;8350;52.316;10.530;2024-03-23T16:45:08;7.20;99.90
16479;DHT22;8350;52.316;10.530;2024-03-23T16:47:36;7.20;99.90
16479;DHT22;8350;52.316;10.530;2024-03-23T16:50:06;7.10;99.90
16479;DHT22;8350;52.316;10.530;2024-03-23T16:52:34;6.90;99.90
16479;DHT22;8350;52.316;10.530;2024-03-23T16:55:05;6.50;99.90